Terminal Aerodrome Forecast
Issued by NWS Kansas City/Pleasant Hill, MO

Home | Current Version | Previous Version | Text Only | Print | Product List | Glossary On
Versions: 1 2 3 4 5 6 7 8 9 10 11 12 13 14 15 16 17 18 19 20
000
FTUS43 KEAX 152300
TAFMCI
TAF
KMCI 152327Z 1600/1624 28015G25KT P6SM OVC009
      TEMPO 1600/1602 -DZ
     FM160200 29015G25KT P6SM OVC015
     FM161200 31013G23KT P6SM OVC025
     FM162000 32011KT P6SM SCT025=

USA.gov is the U.S. government's official web portal to all federal, state and local government web resources and services.